Terminal Aerodrome Forecast
Issued by NWS Jackson, MS

Home | Current Version | Previous Version | Text Only | Print | Product List | Glossary On
Versions: 1 2 3 4 5 6 7 8 9 10 11 12 13
000
FTUS44 KJAN 190500
TAFJAN
TAF
KJAN 190529Z 1906/2006 14004KT P6SM SCT120 BKN250
     FM191200 11003KT 5SM BR FEW250
     FM191400 12006KT P6SM SCT050=

USA.gov is the U.S. government's official web portal to all federal, state and local government web resources and services.